createdAt,value
2023-11-27T00:01:45.949Z,0.40
2023-11-27T00:06:47.965Z,0.55
2023-11-27T00:11:50.215Z,0.65
2023-11-27T00:16:54.763Z,0.80
2023-11-27T00:21:57.031Z,0.70
2023-11-27T00:26:59.074Z,0.75
2023-11-27T00:32:01.291Z,0.80
2023-11-27T00:37:03.437Z,0.40
2023-11-27T00:42:08.099Z,0.88
2023-11-27T00:47:12.518Z,0.95
2023-11-27T00:52:14.787Z,0.98
2023-11-27T00:57:18.920Z,0.47
2023-11-27T01:02:21.204Z,0.50
2023-11-27T01:07:25.852Z,0.43
2023-11-27T01:12:27.812Z,0.55
2023-11-27T01:17:34.554Z,0.50
2023-11-27T01:22:38.177Z,0.40
2023-11-27T01:27:43.090Z,0.00
2023-11-27T01:32:45.291Z,0.10
2023-11-27T01:37:49.625Z,0.38
2023-11-27T01:42:53.998Z,0.32
2023-11-27T01:47:55.973Z,0.30
2023-11-27T01:52:58.060Z,0.22
2023-11-27T01:58:00.603Z,0.20
2023-11-27T02:03:10.638Z,0.10
2023-11-27T02:08:12.575Z,0.00
2023-11-27T02:13:16.015Z,0.00
2023-11-27T02:18:18.303Z,0.17
2023-11-27T02:23:21.642Z,0.13
2023-11-27T02:28:23.752Z,0.08
2023-11-27T02:33:28.449Z,0.10
2023-11-27T02:38:30.269Z,0.20
2023-11-27T02:43:35.943Z,0.10
2023-11-27T02:48:40.189Z,0.10
2023-11-27T02:53:42.070Z,0.10
2023-11-27T02:58:48.671Z,0.20
2023-11-27T03:03:50.623Z,0.03
2023-11-27T03:08:54.929Z,0.32
2023-11-27T03:13:56.856Z,0.30
2023-11-27T03:18:59.236Z,0.20
2023-11-27T03:24:01.188Z,0.10
2023-11-27T03:29:03.364Z,0.43
2023-11-27T03:34:05.300Z,0.13
2023-11-27T03:39:12.543Z,0.35
2023-11-27T03:49:19.121Z,0.10
2023-11-27T03:54:21.112Z,0.40
2023-11-27T03:59:23.201Z,0.00
2023-11-27T04:04:25.210Z,0.00
2023-11-27T04:09:27.248Z,0.10
2023-11-27T04:14:29.158Z,0.10
2023-11-27T04:19:31.042Z,0.00
2023-11-27T04:24:32.948Z,0.13
2023-11-27T04:29:34.855Z,0.00
2023-11-27T04:34:36.659Z,0.00
2023-11-27T04:39:38.645Z,0.13
2023-11-27T04:44:42.825Z,0.10
2023-11-27T04:49:44.972Z,0.10
2023-11-27T04:54:46.959Z,0.00
2023-11-27T04:59:49.391Z,0.10
2023-11-27T05:04:53.834Z,0.40
2023-11-27T05:09:55.918Z,0.10
2023-11-27T05:14:58.577Z,0.10
2023-11-27T05:20:01.025Z,0.25
2023-11-27T05:25:03.356Z,0.00
2023-11-27T05:30:07.562Z,0.05
2023-11-27T05:35:10.301Z,0.17
2023-11-27T05:40:13.203Z,0.10
2023-11-27T05:45:16.379Z,0.10
2023-11-27T05:50:20.264Z,0.00
2023-11-27T05:55:22.680Z,0.10
2023-11-27T06:00:26.311Z,0.03
2023-11-27T06:05:28.815Z,0.03
2023-11-27T06:10:34.125Z,0.05
2023-11-27T06:15:36.511Z,0.10
2023-11-27T06:20:38.774Z,0.15
2023-11-27T06:25:41.422Z,0.10
2023-11-27T06:30:43.597Z,0.03
2023-11-27T06:35:46.384Z,0.47
2023-11-27T06:40:49.573Z,0.10
2023-11-27T06:45:53.880Z,0.00
2023-11-27T06:50:57.057Z,0.22
2023-11-27T06:55:58.827Z,0.13
2023-11-27T07:01:00.883Z,0.08
2023-11-27T07:06:06.001Z,0.35
2023-11-27T07:11:09.742Z,0.10
2023-11-27T07:16:14.586Z,0.10
2023-11-27T07:21:16.420Z,0.13
2023-11-27T07:26:18.441Z,0.20
2023-11-27T07:31:22.817Z,0.17
2023-11-27T07:36:24.997Z,0.05
2023-11-27T07:41:29.474Z,0.10
2023-11-27T07:46:32.127Z,0.00
2023-11-27T07:51:34.532Z,0.10
2023-11-27T07:56:36.584Z,0.10
2023-11-27T08:01:38.889Z,0.10
2023-11-27T08:06:41.176Z,0.10
2023-11-27T08:11:45.542Z,0.10
2023-11-27T08:16:50.686Z,0.38
2023-11-27T08:21:52.576Z,0.03
2023-11-27T08:26:54.569Z,0.15
2023-11-27T08:31:59.821Z,0.20
2023-11-27T08:37:06.417Z,0.55
2023-11-27T08:42:08.534Z,0.25
2023-11-27T08:47:12.807Z,0.15
2023-11-27T08:52:14.716Z,0.22
2023-11-27T08:57:21.389Z,0.13
2023-11-27T09:02:25.554Z,0.30
2023-11-27T09:07:27.650Z,0.00
2023-11-27T09:12:30.712Z,0.10
2023-11-27T09:17:32.854Z,0.10
2023-11-27T09:22:34.995Z,0.22
2023-11-27T09:27:40.135Z,0.63
2023-11-27T09:32:42.246Z,0.10
2023-11-27T09:37:48.076Z,0.25
2023-11-27T09:42:50.178Z,0.40
2023-11-27T09:47:53.300Z,0.20
2023-11-27T09:52:55.993Z,0.30
2023-11-27T09:57:58.031Z,0.10
2023-11-27T10:03:04.369Z,0.40
2023-11-27T10:08:10.660Z,0.20
2023-11-27T10:13:21.765Z,0.30
2023-11-27T10:18:30.031Z,0.75
2023-11-27T10:23:34.265Z,0.38
2023-11-27T10:28:47.073Z,0.32
2023-11-27T10:33:49.078Z,0.22
2023-11-27T10:39:20.568Z,0.60
2023-11-27T10:44:23.891Z,0.25
2023-11-27T10:49:31.448Z,0.10
2023-11-27T10:54:36.486Z,0.30
2023-11-27T10:59:44.019Z,0.20
2023-11-27T11:04:53.608Z,0.30
2023-11-27T11:09:57.323Z,0.05
2023-11-27T11:15:07.855Z,0.25
2023-11-27T11:20:44.678Z,0.30
2023-11-27T11:26:30.639Z,0.50
2023-11-27T11:31:45.826Z,0.43
2023-11-27T11:36:56.354Z,0.10
2023-11-27T11:42:06.068Z,0.10
2023-11-27T11:47:32.469Z,0.22
2023-11-27T11:52:37.789Z,0.10
2023-11-27T11:57:46.153Z,0.30
2023-11-27T12:02:51.779Z,0.43
2023-11-27T12:07:54.283Z,0.50
2023-11-27T12:12:59.308Z,0.22
2023-11-27T12:18:01.666Z,0.22
2023-11-27T12:23:05.953Z,0.10
2023-11-27T12:28:08.494Z,0.32
2023-11-27T12:33:10.663Z,0.20
2023-11-27T12:38:13.067Z,0.28
2023-11-27T12:43:20.256Z,0.32
2023-11-27T12:48:23.009Z,0.17
2023-11-27T12:53:27.718Z,0.30
2023-11-27T12:58:30.067Z,0.10
2023-11-27T13:03:32.586Z,0.43
2023-11-27T13:08:34.702Z,0.73
2023-11-27T13:13:37.162Z,0.30
2023-11-27T13:18:39.087Z,0.30
2023-11-27T13:23:43.239Z,0.35
2023-11-27T13:28:45.121Z,0.90
2023-11-27T13:33:49.630Z,0.52
2023-11-27T13:38:52.549Z,0.52
2023-11-27T13:43:55.281Z,0.57
2023-11-27T13:48:57.266Z,0.30
2023-11-27T13:53:59.446Z,0.63
2023-11-27T13:59:01.628Z,0.15
2023-11-27T14:04:22.164Z,0.43
2023-11-27T14:09:43.048Z,0.20
2023-11-27T14:14:50.580Z,0.22
2023-11-27T14:20:13.390Z,0.35
2023-11-27T14:25:32.082Z,0.40
2023-11-27T14:30:34.661Z,0.55
2023-11-27T14:35:37.742Z,0.57
2023-11-27T14:40:40.118Z,0.55
2023-11-27T14:45:50.264Z,0.82
2023-11-27T14:50:55.087Z,1.00
2023-11-27T14:55:57.106Z,1.70
2023-11-27T15:01:03.486Z,1.98
2023-11-27T15:06:08.901Z,1.13
2023-11-27T15:11:12.249Z,0.70
2023-11-27T15:16:18.962Z,0.73
2023-11-27T15:21:25.673Z,1.40
2023-11-27T15:26:27.654Z,0.75
2023-11-27T15:31:32.700Z,1.38
2023-11-27T15:36:37.625Z,0.43
2023-11-27T15:41:44.377Z,0.47
2023-11-27T15:46:47.344Z,0.35
2023-11-27T15:51:51.451Z,0.85
2023-11-27T15:56:56.096Z,1.00
2023-11-27T16:07:02.764Z,1.27
2023-11-27T16:12:06.418Z,1.02
2023-11-27T16:17:09.918Z,1.50
2023-11-27T16:22:11.727Z,0.73
2023-11-27T16:27:15.114Z,2.00
2023-11-27T16:32:17.612Z,2.92
2023-11-27T16:37:25.116Z,2.70
2023-11-27T16:42:31.895Z,4.63
2023-11-27T16:47:34.144Z,3.22
2023-11-27T16:52:37.251Z,3.90
2023-11-27T16:57:39.571Z,3.03
2023-11-27T17:02:47.567Z,5.18
2023-11-27T17:07:50.637Z,6.60
2023-11-27T17:12:52.585Z,5.60
2023-11-27T17:17:54.689Z,7.35
2023-11-27T17:23:04.681Z,4.45
2023-11-27T17:28:13.910Z,4.65
2023-11-27T17:33:19.527Z,7.55
2023-11-27T17:38:21.361Z,7.13
2023-11-27T17:43:23.164Z,4.20
2023-11-27T17:48:24.948Z,2.95
2023-11-27T17:53:27.959Z,2.50
2023-11-27T17:58:29.881Z,3.58
2023-11-27T18:03:31.872Z,5.50
2023-11-27T18:08:35.859Z,6.95
2023-11-27T18:13:40.520Z,5.75
2023-11-27T18:18:42.322Z,7.28
2023-11-27T18:23:46.635Z,4.45
2023-11-27T18:28:50.651Z,4.80
2023-11-27T18:33:54.957Z,5.68
2023-11-27T18:38:57.079Z,4.82
2023-11-27T18:44:00.200Z,6.93
2023-11-27T18:49:04.022Z,5.47
2023-11-27T18:54:05.849Z,5.47
2023-11-27T18:59:07.809Z,5.60
2023-11-27T19:04:09.780Z,3.53
2023-11-27T19:09:12.175Z,7.30
2023-11-27T19:14:14.259Z,7.82
2023-11-27T19:19:16.431Z,5.05
2023-11-27T19:24:21.161Z,5.95
2023-11-27T19:29:25.730Z,7.10
2023-11-27T19:34:32.880Z,8.75
2023-11-27T19:39:35.109Z,4.53
2023-11-27T19:44:37.454Z,3.30
2023-11-27T19:49:39.660Z,4.75
2023-11-27T19:54:41.932Z,6.25
2023-11-27T19:59:46.373Z,4.70
2023-11-27T20:04:48.671Z,4.35
2023-11-27T20:09:50.852Z,4.80
2023-11-27T20:14:55.820Z,3.67
2023-11-27T20:19:58.034Z,3.88
2023-11-27T20:25:00.235Z,5.20
2023-11-27T20:30:04.473Z,5.43
2023-11-27T20:35:07.619Z,6.45
2023-11-27T20:40:15.127Z,5.00
2023-11-27T20:45:17.359Z,3.65
2023-11-27T20:50:21.666Z,3.13
2023-11-27T20:55:26.679Z,8.70
2023-11-27T21:00:28.612Z,7.63
2023-11-27T21:05:30.520Z,3.85
2023-11-27T21:10:34.310Z,3.38
2023-11-27T21:15:36.231Z,3.67
2023-11-27T21:20:38.132Z,3.72
2023-11-27T21:25:40.403Z,3.47
2023-11-27T21:30:44.533Z,5.15
2023-11-27T21:35:46.528Z,4.38
2023-11-27T21:40:51.311Z,4.47
2023-11-27T21:45:54.645Z,3.95
2023-11-27T21:50:58.988Z,3.13
2023-11-27T21:56:03.380Z,3.30
2023-11-27T22:01:16.693Z,3.50
2023-11-27T22:06:19.602Z,2.30
2023-11-27T22:11:21.407Z,3.03
2023-11-27T22:16:25.641Z,2.55
2023-11-27T22:21:27.565Z,3.95
2023-11-27T22:26:32.103Z,2.83
2023-11-27T22:31:34.115Z,3.72
2023-11-27T22:36:36.219Z,3.03
2023-11-27T22:41:44.111Z,2.42
2023-11-27T22:46:50.725Z,3.53
2023-11-27T22:51:52.612Z,2.35
2023-11-27T22:56:54.469Z,2.78
2023-11-27T23:01:56.495Z,3.00
2023-11-27T23:06:58.460Z,3.42
2023-11-27T23:12:00.404Z,3.85
2023-11-27T23:17:02.286Z,4.10
2023-11-27T23:22:04.170Z,3.20
2023-11-27T23:27:08.662Z,2.50
2023-11-27T23:32:13.022Z,1.85
2023-11-27T23:37:17.503Z,1.17
2023-11-27T23:42:19.342Z,2.28
2023-11-27T23:47:21.227Z,2.45
2023-11-27T23:52:23.198Z,1.60
2023-11-27T23:57:25.439Z,1.77
